createdAt,value
2023-06-10T00:00:07.041Z,17.55
2023-06-10T00:01:14.301Z,17.48
2023-06-10T00:02:18.077Z,17.34
2023-06-10T00:03:20.406Z,17.42
2023-06-10T00:04:22.974Z,17.49
2023-06-10T00:05:24.924Z,17.49
2023-06-10T00:06:26.784Z,17.48
2023-06-10T00:07:28.971Z,17.52
2023-06-10T00:08:32.468Z,17.53
2023-06-10T00:09:34.334Z,17.53
2023-06-10T00:10:36.877Z,17.46
2023-06-10T00:11:38.821Z,17.32
2023-06-10T00:12:41.304Z,17.34
2023-06-10T00:13:43.412Z,17.38
2023-06-10T00:14:45.315Z,17.44
2023-06-10T00:15:47.172Z,17.33
2023-06-10T00:16:49.426Z,17.30
2023-06-10T00:17:54.199Z,17.30
2023-06-10T00:20:10.207Z,17.29
2023-06-10T00:21:14.501Z,17.45
2023-06-10T00:22:16.559Z,17.38
2023-06-10T00:23:18.748Z,17.30
2023-06-10T00:24:20.758Z,17.28
2023-06-10T00:25:22.685Z,17.22
2023-06-10T00:26:24.652Z,17.22
2023-06-10T00:27:32.458Z,17.21
2023-06-10T00:28:36.114Z,17.18
2023-06-10T00:29:38.052Z,17.18
2023-06-10T00:30:40.136Z,17.28
2023-06-10T00:31:46.228Z,17.27
2023-06-10T00:32:48.257Z,17.34
2023-06-10T00:33:50.512Z,17.35
2023-06-10T00:34:52.450Z,17.29
2023-06-10T00:35:54.415Z,17.26
2023-06-10T00:36:57.018Z,17.17
2023-06-10T00:37:58.963Z,17.16
2023-06-10T00:39:01.223Z,17.13
2023-06-10T00:40:04.712Z,17.14
2023-06-10T00:41:07.272Z,17.17
2023-06-10T00:42:11.843Z,17.00
2023-06-10T00:43:13.902Z,17.03
2023-06-10T00:44:17.421Z,16.99
2023-06-10T00:45:19.407Z,17.06
2023-06-10T00:46:24.584Z,16.99
2023-06-10T00:47:27.398Z,16.99
2023-06-10T00:48:30.075Z,16.90
2023-06-10T00:49:33.408Z,16.81
2023-06-10T00:50:35.802Z,16.81
2023-06-10T00:51:38.060Z,16.92
2023-06-10T00:52:40.120Z,16.97
2023-06-10T00:53:45.378Z,16.84
2023-06-10T00:54:47.846Z,16.86
2023-06-10T00:55:50.951Z,16.85
2023-06-10T00:56:53.403Z,16.85
2023-06-10T00:57:55.622Z,16.79
2023-06-10T00:58:57.581Z,16.76
2023-06-10T01:00:01.266Z,16.81
2023-06-10T01:01:05.227Z,16.91
2023-06-10T01:02:08.702Z,16.76
2023-06-10T01:03:11.641Z,16.67
2023-06-10T01:04:14.405Z,16.56
2023-06-10T01:05:16.769Z,16.55
2023-06-10T01:06:18.684Z,16.55
2023-06-10T01:07:27.321Z,16.57
2023-06-10T01:08:42.943Z,16.54
2023-06-10T01:09:59.566Z,16.63
2023-06-10T01:11:05.062Z,16.56
2023-06-10T01:12:15.303Z,16.65
2023-06-10T01:13:19.184Z,16.67
2023-06-10T01:14:21.888Z,16.67
2023-06-10T01:15:24.048Z,16.70
2023-06-10T01:16:26.650Z,16.74
2023-06-10T01:17:29.845Z,16.64
2023-06-10T01:18:32.565Z,16.72
2023-06-10T01:19:35.148Z,16.80
2023-06-10T01:20:41.806Z,16.78
2023-06-10T01:21:49.581Z,16.77
2023-06-10T01:22:59.084Z,16.69
2023-06-10T01:24:01.354Z,16.66
2023-06-10T01:25:04.579Z,16.60
2023-06-10T01:26:11.668Z,16.67
2023-06-10T01:27:16.829Z,16.67
2023-06-10T01:28:31.335Z,16.60
2023-06-10T01:29:46.345Z,16.40
2023-06-10T01:30:51.835Z,16.40
2023-06-10T01:32:12.971Z,16.42
2023-06-10T01:33:22.821Z,16.45
2023-06-10T01:34:25.528Z,16.44
2023-06-10T01:35:29.408Z,16.50
2023-06-10T01:36:32.938Z,16.52
2023-06-10T01:37:36.406Z,16.49
2023-06-10T01:38:43.490Z,16.41
2023-06-10T01:39:47.581Z,16.38
2023-06-10T01:40:50.928Z,16.25
2023-06-10T01:41:53.827Z,16.14
2023-06-10T01:42:55.834Z,16.20
2023-06-10T01:43:58.077Z,16.26
2023-06-10T01:45:00.308Z,16.31
2023-06-10T01:46:02.292Z,16.32
2023-06-10T01:47:05.710Z,16.32
2023-06-10T01:48:08.546Z,16.38
2023-06-10T01:49:10.785Z,16.50
2023-06-10T01:50:12.938Z,16.56
2023-06-10T01:51:14.865Z,16.53
2023-06-10T01:52:16.895Z,16.55
2023-06-10T01:53:18.820Z,16.49
2023-06-10T01:54:22.148Z,16.55
2023-06-10T01:55:24.503Z,16.51
2023-06-10T01:56:26.452Z,16.43
2023-06-10T01:57:28.357Z,16.39
2023-06-10T01:58:30.333Z,16.22
2023-06-10T01:59:32.569Z,16.24
2023-06-10T02:00:34.696Z,16.27
2023-06-10T02:01:37.128Z,16.28
2023-06-10T02:02:39.126Z,16.24
2023-06-10T02:03:41.354Z,16.31
2023-06-10T02:04:44.453Z,16.22
2023-06-10T02:05:46.430Z,16.19
2023-06-10T02:06:49.250Z,16.28
2023-06-10T02:07:51.188Z,16.36
2023-06-10T02:08:53.037Z,16.31
2023-06-10T02:09:55.011Z,16.26
2023-06-10T02:10:57.262Z,16.16
2023-06-10T02:11:59.530Z,16.28
2023-06-10T02:13:01.426Z,16.40
2023-06-10T02:14:03.354Z,16.34
2023-06-10T02:15:06.370Z,16.29
2023-06-10T02:16:08.463Z,16.39
2023-06-10T02:17:13.805Z,16.42
2023-06-10T02:18:17.526Z,16.49
2023-06-10T02:19:21.591Z,16.50
2023-06-10T02:20:23.824Z,16.49
2023-06-10T02:21:25.780Z,16.44
2023-06-10T02:22:27.760Z,16.43
2023-06-10T02:23:29.671Z,16.45
2023-06-10T02:24:31.549Z,16.44
2023-06-10T02:25:33.779Z,16.38
2023-06-10T02:26:35.955Z,16.41
2023-06-10T02:27:37.824Z,16.35
2023-06-10T02:28:43.241Z,16.37
2023-06-10T02:29:45.384Z,16.31
2023-06-10T02:30:47.947Z,16.22
2023-06-10T02:31:50.212Z,16.36
2023-06-10T02:32:53.740Z,16.30
2023-06-10T02:33:56.810Z,16.35
2023-06-10T02:34:58.900Z,16.37
2023-06-10T02:36:01.177Z,16.46
2023-06-10T02:37:03.821Z,16.50
2023-06-10T02:38:06.426Z,16.48
2023-06-10T02:39:09.116Z,16.40
2023-06-10T02:40:11.829Z,16.34
2023-06-10T02:41:14.279Z,16.29
2023-06-10T02:42:16.553Z,16.22
2023-06-10T02:43:19.044Z,16.33
2023-06-10T02:44:21.443Z,16.40
2023-06-10T02:45:23.654Z,16.37
2023-06-10T02:46:26.115Z,16.45
2023-06-10T02:47:28.655Z,16.45
2023-06-10T02:48:30.814Z,16.43
2023-06-10T02:49:33.102Z,16.48
2023-06-10T02:50:35.383Z,16.49
2023-06-10T02:51:38.211Z,16.55
2023-06-10T02:52:40.110Z,16.52
2023-06-10T02:53:42.385Z,16.36
2023-06-10T02:54:44.521Z,16.45
2023-06-10T02:55:46.702Z,16.43
2023-06-10T02:56:49.470Z,16.48
2023-06-10T02:57:52.396Z,16.58
2023-06-10T02:58:54.721Z,16.57
2023-06-10T02:59:56.968Z,16.59
2023-06-10T03:00:59.518Z,16.60
2023-06-10T03:02:03.574Z,16.67
2023-06-10T03:03:06.409Z,16.56
2023-06-10T03:04:09.909Z,16.52
2023-06-10T03:05:14.165Z,16.50
2023-06-10T03:06:17.023Z,16.61
2023-06-10T03:07:21.837Z,16.66
2023-06-10T03:08:24.645Z,16.73
2023-06-10T03:09:26.617Z,16.74
2023-06-10T03:10:29.715Z,16.74
2023-06-10T03:11:31.862Z,16.70
2023-06-10T03:12:34.294Z,16.75
2023-06-10T03:13:36.420Z,16.84
2023-06-10T03:14:39.886Z,16.84
2023-06-10T03:15:42.396Z,16.85
2023-06-10T03:16:46.654Z,16.92
2023-06-10T03:17:49.991Z,16.91
2023-06-10T03:18:53.873Z,16.87
2023-06-10T03:19:55.835Z,16.89
2023-06-10T03:20:58.636Z,16.85
2023-06-10T03:22:15.598Z,16.87
2023-06-10T03:23:19.560Z,16.98
2023-06-10T03:24:21.780Z,16.96
2023-06-10T03:25:24.127Z,16.94
2023-06-10T03:26:28.431Z,16.97
2023-06-10T03:27:31.470Z,16.98
2023-06-10T03:28:34.053Z,17.01
2023-06-10T03:29:36.974Z,16.98
2023-06-10T03:30:39.839Z,16.91
2023-06-10T03:31:42.276Z,16.82
2023-06-10T03:32:44.548Z,16.83
2023-06-10T03:33:47.868Z,16.93
2023-06-10T03:34:49.894Z,16.98
2023-06-10T03:35:52.178Z,16.92
2023-06-10T03:36:54.361Z,16.94
2023-06-10T03:37:56.410Z,17.02
2023-06-10T03:38:58.789Z,17.04
2023-06-10T03:40:00.908Z,17.09
2023-06-10T03:41:02.784Z,17.09
2023-06-10T03:42:05.847Z,17.09
2023-06-10T03:43:08.326Z,17.13
2023-06-10T03:44:11.067Z,17.13
2023-06-10T03:45:13.688Z,17.10
2023-06-10T03:46:16.105Z,17.15
2023-06-10T03:47:18.071Z,17.10
2023-06-10T03:48:20.296Z,16.93
2023-06-10T03:49:27.749Z,16.77
2023-06-10T03:50:30.300Z,16.59
2023-06-10T03:51:32.238Z,16.50
2023-06-10T03:52:34.408Z,16.46
2023-06-10T03:53:36.274Z,16.52
2023-06-10T03:54:38.468Z,16.65
2023-06-10T03:55:40.669Z,16.78
2023-06-10T03:56:42.554Z,16.97
2023-06-10T03:57:44.668Z,16.97
2023-06-10T03:58:47.666Z,16.98
2023-06-10T03:59:50.158Z,16.95
2023-06-10T04:00:52.071Z,16.98
2023-06-10T04:01:53.950Z,16.99
2023-06-10T04:02:59.230Z,16.97
2023-06-10T04:04:02.386Z,16.96
2023-06-10T04:05:04.515Z,17.04
2023-06-10T04:06:06.593Z,17.15
2023-06-10T04:07:09.816Z,17.19
2023-06-10T04:08:12.064Z,17.14
2023-06-10T04:09:13.957Z,17.22
2023-06-10T04:10:16.640Z,17.22
2023-06-10T04:11:18.657Z,17.33
2023-06-10T04:12:21.233Z,17.17
2023-06-10T04:13:23.575Z,17.22
2023-06-10T04:14:26.282Z,17.23
2023-06-10T04:15:29.084Z,17.25
2023-06-10T04:16:32.524Z,17.19
2023-06-10T04:17:35.584Z,17.21
2023-06-10T04:18:38.118Z,17.20
2023-06-10T04:19:40.512Z,17.21
2023-06-10T04:20:43.375Z,17.30
2023-06-10T04:21:45.450Z,17.33
2023-06-10T04:22:47.440Z,17.32
2023-06-10T04:23:50.668Z,17.33
2023-06-10T04:24:52.881Z,17.32
2023-06-10T04:25:55.381Z,17.37
2023-06-10T04:26:57.550Z,17.78
2023-06-10T04:27:59.510Z,17.71
2023-06-10T04:29:01.818Z,17.67
2023-06-10T04:30:05.457Z,17.64
2023-06-10T04:31:08.161Z,17.69
2023-06-10T04:32:10.814Z,17.62
2023-06-10T04:33:13.398Z,17.61
2023-06-10T04:34:15.839Z,17.60
2023-06-10T04:35:17.875Z,17.62
2023-06-10T04:36:20.508Z,17.67
2023-06-10T04:37:22.405Z,17.62
2023-06-10T04:38:24.416Z,17.74
2023-06-10T04:39:27.039Z,17.78
2023-06-10T04:40:28.952Z,17.65
2023-06-10T04:41:31.413Z,17.70
2023-06-10T04:42:33.314Z,17.65
2023-06-10T04:43:35.697Z,17.57
2023-06-10T04:44:37.841Z,17.60
2023-06-10T04:45:39.798Z,17.64
2023-06-10T04:46:42.139Z,17.64
2023-06-10T04:47:45.279Z,17.65
2023-06-10T04:48:48.309Z,17.73
2023-06-10T04:49:50.751Z,17.77
2023-06-10T04:50:52.905Z,17.83
2023-06-10T04:51:54.798Z,17.82
2023-06-10T04:53:00.217Z,17.80
2023-06-10T04:54:05.026Z,17.79
2023-06-10T04:55:07.976Z,17.80
2023-06-10T04:56:10.181Z,17.83
2023-06-10T04:57:12.660Z,17.86
2023-06-10T04:58:14.823Z,17.95
2023-06-10T04:59:16.678Z,18.02
2023-06-10T05:00:19.712Z,18.08
2023-06-10T05:01:21.677Z,18.11
2023-06-10T05:02:23.613Z,18.13
2023-06-10T05:03:25.655Z,18.12
2023-06-10T05:04:27.639Z,18.13
2023-06-10T05:05:29.884Z,18.09
2023-06-10T05:06:31.735Z,18.21
2023-06-10T05:07:33.612Z,18.25
2023-06-10T05:08:35.624Z,18.26
2023-06-10T05:09:38.137Z,18.27
2023-06-10T05:10:40.523Z,18.29
2023-06-10T05:11:42.716Z,18.37
2023-06-10T05:12:44.691Z,18.42
2023-06-10T05:13:46.698Z,18.41
2023-06-10T05:14:48.557Z,18.42
2023-06-10T05:15:50.872Z,18.35
2023-06-10T05:16:52.764Z,18.35
2023-06-10T05:17:58.461Z,18.37
2023-06-10T05:19:00.380Z,18.33
2023-06-10T05:20:03.769Z,18.27
2023-06-10T05:21:06.177Z,18.29
2023-06-10T05:22:08.068Z,18.43
2023-06-10T05:23:10.036Z,18.53
2023-06-10T05:24:12.468Z,18.56
2023-06-10T05:25:14.426Z,18.59
2023-06-10T05:26:16.727Z,18.53
2023-06-10T05:27:18.628Z,18.55
2023-06-10T05:28:20.794Z,18.61
2023-06-10T05:29:22.678Z,18.55
2023-06-10T05:30:25.683Z,18.59
2023-06-10T05:31:27.910Z,18.62
2023-06-10T05:32:29.826Z,18.70
2023-06-10T05:33:31.698Z,18.86
2023-06-10T05:34:33.598Z,18.79
2023-06-10T05:35:35.545Z,18.86
2023-06-10T05:36:38.120Z,18.81
2023-06-10T05:37:40.179Z,18.90
2023-06-10T05:38:42.098Z,18.93
2023-06-10T05:39:43.977Z,18.80
2023-06-10T05:40:46.615Z,18.86
2023-06-10T05:41:49.076Z,18.83
2023-06-10T05:42:51.057Z,18.86
2023-06-10T05:43:53.059Z,18.87
2023-06-10T05:44:55.122Z,18.80
2023-06-10T05:45:57.021Z,18.79
2023-06-10T05:46:59.222Z,18.79
2023-06-10T05:48:01.178Z,18.74
2023-06-10T05:49:03.883Z,18.89
2023-06-10T05:50:09.941Z,18.93
2023-06-10T05:51:11.854Z,18.95
2023-06-10T05:52:14.092Z,18.87
2023-06-10T05:53:16.661Z,18.72
2023-06-10T05:54:18.557Z,18.83
2023-06-10T05:55:20.546Z,18.71
2023-06-10T05:56:26.885Z,18.73
2023-06-10T05:57:29.131Z,18.81
2023-06-10T05:58:31.117Z,18.83
2023-06-10T05:59:33.047Z,18.76
2023-06-10T06:00:37.368Z,18.65
2023-06-10T06:01:40.748Z,18.60
2023-06-10T06:02:42.689Z,18.71
2023-06-10T06:03:44.689Z,18.63
2023-06-10T06:04:46.869Z,18.66
2023-06-10T06:05:48.797Z,18.71
2023-06-10T06:06:51.044Z,18.76
2023-06-10T06:07:53.203Z,18.86
2023-06-10T06:08:55.155Z,18.89
2023-06-10T06:09:57.032Z,18.74
2023-06-10T06:10:59.344Z,18.99
2023-06-10T06:12:01.592Z,18.84
2023-06-10T06:13:03.859Z,18.83
2023-06-10T06:14:05.819Z,18.91
2023-06-10T06:15:09.896Z,18.91
2023-06-10T06:16:11.953Z,18.92
2023-06-10T06:17:14.219Z,19.02
2023-06-10T06:18:16.188Z,19.01
2023-06-10T06:19:18.114Z,19.13
2023-06-10T06:20:24.203Z,19.18
2023-06-10T06:21:26.233Z,19.29
2023-06-10T06:22:28.425Z,19.43
2023-06-10T06:23:31.533Z,19.66
2023-06-10T06:24:33.766Z,19.62
2023-06-10T06:25:36.767Z,19.53
2023-06-10T06:26:38.684Z,19.66
2023-06-10T06:27:40.844Z,19.80
2023-06-10T06:28:42.722Z,19.87
2023-06-10T06:29:44.609Z,19.80
2023-06-10T06:30:46.862Z,19.63
2023-06-10T06:31:48.775Z,19.62
2023-06-10T06:32:51.115Z,19.75
2023-06-10T06:33:53.051Z,19.71
2023-06-10T06:34:57.763Z,19.81
2023-06-10T06:36:01.273Z,19.73
2023-06-10T06:37:03.253Z,19.67
2023-06-10T06:38:06.628Z,19.67
2023-06-10T06:39:08.698Z,19.75
2023-06-10T06:40:12.477Z,19.70
2023-06-10T06:41:14.337Z,19.74
2023-06-10T06:42:16.308Z,19.63
2023-06-10T06:43:21.266Z,19.34
2023-06-10T06:44:23.572Z,19.46
2023-06-10T06:45:26.091Z,19.61
2023-06-10T06:46:29.584Z,19.77
2023-06-10T06:47:31.773Z,19.84
2023-06-10T06:48:34.191Z,19.93
2023-06-10T06:49:36.793Z,20.09
2023-06-10T06:50:38.768Z,19.99
2023-06-10T06:51:40.668Z,20.01
2023-06-10T06:52:42.579Z,20.05
2023-06-10T06:53:47.537Z,20.14
2023-06-10T06:54:49.688Z,20.14
2023-06-10T06:55:51.541Z,20.17
2023-06-10T06:56:53.361Z,20.23
2023-06-10T06:57:55.398Z,20.18
2023-06-10T06:58:58.378Z,20.15
2023-06-10T07:00:00.495Z,20.22
2023-06-10T07:01:02.492Z,20.22
2023-06-10T07:02:04.783Z,20.28
2023-06-10T07:03:06.755Z,20.36
2023-06-10T07:04:09.184Z,20.17
2023-06-10T07:05:11.685Z,20.25
2023-06-10T07:06:14.656Z,20.32
2023-06-10T07:07:16.699Z,20.41
2023-06-10T07:08:18.585Z,20.49
2023-06-10T07:09:20.793Z,20.53
2023-06-10T07:10:23.959Z,20.63
2023-06-10T07:11:26.542Z,20.50
2023-06-10T07:12:29.170Z,20.55
2023-06-10T07:13:32.818Z,20.48
2023-06-10T07:14:35.372Z,20.57
2023-06-10T07:15:37.257Z,20.56
2023-06-10T07:16:39.161Z,20.62
2023-06-10T07:17:41.139Z,20.65
2023-06-10T07:18:43.228Z,20.53
2023-06-10T07:19:46.472Z,20.48
2023-06-10T07:20:50.425Z,20.61
2023-06-10T07:21:53.001Z,20.72
2023-06-10T07:22:54.952Z,20.77
2023-06-10T07:23:57.040Z,20.85
2023-06-10T07:24:59.785Z,21.00
2023-06-10T07:26:01.724Z,20.95
2023-06-10T07:27:03.752Z,21.01
2023-06-10T07:28:05.757Z,21.09
2023-06-10T07:29:07.742Z,21.06
2023-06-10T07:30:10.400Z,21.02
2023-06-10T07:31:13.262Z,21.07
2023-06-10T07:32:17.293Z,20.97
2023-06-10T07:33:21.261Z,21.09
2023-06-10T07:34:23.135Z,21.01
2023-06-10T07:35:25.720Z,20.86
2023-06-10T07:36:30.778Z,20.97
2023-06-10T07:37:32.665Z,21.07
2023-06-10T07:38:35.142Z,21.22
2023-06-10T07:39:37.048Z,21.14
2023-06-10T07:40:39.205Z,21.12
2023-06-10T07:41:41.080Z,21.14
2023-06-10T07:42:44.229Z,21.18
2023-06-10T07:43:46.339Z,21.27
2023-06-10T07:44:48.362Z,21.30
2023-06-10T07:45:50.768Z,21.37
2023-06-10T07:46:52.737Z,21.54
2023-06-10T07:47:54.796Z,21.59
2023-06-10T07:48:56.709Z,21.37
2023-06-10T07:49:58.628Z,21.36
2023-06-10T07:51:00.867Z,21.26
2023-06-10T07:52:03.090Z,21.26
2023-06-10T07:53:05.016Z,21.57
2023-06-10T07:54:07.027Z,21.80
2023-06-10T07:55:09.315Z,21.88
2023-06-10T07:56:11.816Z,22.09
2023-06-10T07:57:13.725Z,22.20
2023-06-10T07:58:15.571Z,22.34
2023-06-10T07:59:17.498Z,22.28
2023-06-10T08:00:20.100Z,22.29
2023-06-10T08:01:23.969Z,22.46
2023-06-10T08:02:26.119Z,22.38
2023-06-10T08:03:28.252Z,22.28
2023-06-10T08:04:32.008Z,22.42
2023-06-10T08:05:34.149Z,22.53
2023-06-10T08:06:37.697Z,22.36
2023-06-10T08:07:41.056Z,22.45
2023-06-10T08:08:44.803Z,22.75
2023-06-10T08:09:46.854Z,22.94
2023-06-10T08:10:50.438Z,22.87
2023-06-10T08:11:52.921Z,22.64
2023-06-10T08:12:55.338Z,22.68
2023-06-10T08:13:57.247Z,22.66
2023-06-10T08:14:59.389Z,22.53
2023-06-10T08:16:01.279Z,22.46
2023-06-10T08:17:06.176Z,22.22
2023-06-10T08:18:08.184Z,22.07
2023-06-10T08:19:10.480Z,21.97
2023-06-10T08:20:12.442Z,21.89
2023-06-10T08:21:14.410Z,21.90
2023-06-10T08:22:16.651Z,21.65
2023-06-10T08:23:18.529Z,21.60
2023-06-10T08:24:21.290Z,21.66
2023-06-10T08:25:23.457Z,21.54
2023-06-10T08:26:25.733Z,21.46
2023-06-10T08:27:28.415Z,21.41
2023-06-10T08:28:30.356Z,21.43
2023-06-10T08:29:33.021Z,21.30
2023-06-10T08:30:34.906Z,21.21
2023-06-10T08:31:36.878Z,21.25
2023-06-10T08:32:39.105Z,21.18
2023-06-10T08:33:43.240Z,21.18
2023-06-10T08:34:45.089Z,21.06
2023-06-10T08:35:47.164Z,21.09
2023-06-10T08:36:54.124Z,21.18
2023-06-10T08:37:56.379Z,21.04
2023-06-10T08:38:58.351Z,21.03
2023-06-10T08:40:00.256Z,21.12
2023-06-10T08:41:03.196Z,21.10
2023-06-10T08:42:11.156Z,21.10
2023-06-10T08:43:39.347Z,21.14
2023-06-10T08:44:41.415Z,20.99
2023-06-10T08:45:49.352Z,20.99
2023-06-10T08:46:52.977Z,21.07
2023-06-10T08:47:58.556Z,21.09
2023-06-10T08:49:05.014Z,21.21
2023-06-10T08:50:08.839Z,21.08
2023-06-10T08:51:12.892Z,21.13
2023-06-10T08:52:19.443Z,21.26
2023-06-10T08:53:22.033Z,21.24
2023-06-10T08:54:28.257Z,21.44
2023-06-10T08:55:36.581Z,21.68
2023-06-10T08:56:41.597Z,21.94
2023-06-10T08:57:45.613Z,22.18
2023-06-10T08:58:49.039Z,22.31
2023-06-10T08:59:51.242Z,22.13
2023-06-10T09:00:53.692Z,22.31
2023-06-10T09:01:55.952Z,22.36
2023-06-10T09:03:01.640Z,22.46
2023-06-10T09:04:07.362Z,22.52
2023-06-10T09:05:10.458Z,22.66
2023-06-10T09:06:12.694Z,22.62
2023-06-10T09:07:16.132Z,22.75
2023-06-10T09:08:18.594Z,22.72
2023-06-10T09:09:21.446Z,22.71
2023-06-10T09:10:23.724Z,22.88
2023-06-10T09:11:26.758Z,22.93
2023-06-10T09:12:28.724Z,22.84
2023-06-10T09:13:30.686Z,22.78
2023-06-10T09:14:32.554Z,22.88
2023-06-10T09:15:34.958Z,22.95
2023-06-10T09:16:37.130Z,23.09
2023-06-10T09:17:41.695Z,23.15
2023-06-10T09:18:44.529Z,23.22
2023-06-10T09:19:47.590Z,23.19
2023-06-10T09:20:49.803Z,23.15
2023-06-10T09:21:51.754Z,23.18
2023-06-10T09:22:54.470Z,23.34
2023-06-10T09:23:56.451Z,23.56
2023-06-10T09:25:10.263Z,23.79
2023-06-10T09:26:12.778Z,23.88
2023-06-10T09:27:14.828Z,23.82
2023-06-10T09:28:17.191Z,23.91
2023-06-10T09:29:19.126Z,24.02
2023-06-10T09:30:35.191Z,24.24
2023-06-10T09:31:38.822Z,24.49
2023-06-10T09:32:41.218Z,24.73
2023-06-10T09:33:43.984Z,24.50
2023-06-10T09:34:47.202Z,24.41
2023-06-10T09:35:50.638Z,24.53
2023-06-10T09:36:53.205Z,24.65
2023-06-10T09:37:56.749Z,24.75
2023-06-10T09:38:58.682Z,24.97
2023-06-10T09:40:07.844Z,24.82
2023-06-10T09:41:10.049Z,24.80
2023-06-10T09:42:19.657Z,24.33
2023-06-10T09:43:22.169Z,24.28
2023-06-10T09:44:25.659Z,24.16
2023-06-10T09:45:35.004Z,24.06
2023-06-10T09:46:36.987Z,24.07
2023-06-10T09:47:39.277Z,23.92
2023-06-10T09:48:46.099Z,23.90
2023-06-10T09:49:47.993Z,23.69
2023-06-10T09:50:49.933Z,23.69
2023-06-10T09:51:53.009Z,23.48
2023-06-10T09:52:55.250Z,23.52
2023-06-10T09:53:57.174Z,23.65
2023-06-10T09:55:03.594Z,23.83
2023-06-10T09:56:08.759Z,23.44
2023-06-10T09:57:12.584Z,23.33
2023-06-10T09:58:15.564Z,23.37
2023-06-10T09:59:17.556Z,23.18
2023-06-10T10:00:19.829Z,23.12
2023-06-10T10:01:21.721Z,23.19
2023-06-10T10:02:24.031Z,23.02
2023-06-10T10:03:25.964Z,22.93
2023-06-10T10:04:29.610Z,22.84
2023-06-10T10:05:31.825Z,22.84
2023-06-10T10:06:35.218Z,22.76
2023-06-10T10:07:37.418Z,22.71
2023-06-10T10:08:39.323Z,22.60
2023-06-10T10:09:42.312Z,22.60
2023-06-10T10:10:44.298Z,22.56
2023-06-10T10:11:47.147Z,22.54
2023-06-10T10:12:52.205Z,22.73
2023-06-10T10:13:54.329Z,22.73
2023-06-10T10:14:57.723Z,22.68
2023-06-10T10:16:02.772Z,22.59
2023-06-10T10:17:12.209Z,22.63
2023-06-10T10:18:17.683Z,22.59
2023-06-10T10:19:29.183Z,22.60
2023-06-10T10:20:34.359Z,22.67
2023-06-10T10:21:41.014Z,22.69
2023-06-10T10:22:44.712Z,22.81
2023-06-10T10:24:02.458Z,22.88
2023-06-10T10:25:09.964Z,22.96
2023-06-10T10:26:13.330Z,23.03
2023-06-10T10:27:37.777Z,23.20
2023-06-10T10:28:46.538Z,23.25
2023-06-10T10:29:52.481Z,23.31
2023-06-10T10:31:00.694Z,23.41
2023-06-10T10:32:03.382Z,23.49
2023-06-10T10:33:18.207Z,23.40
2023-06-10T10:34:26.823Z,23.65
2023-06-10T10:35:29.230Z,23.74
2023-06-10T10:36:31.457Z,23.85
2023-06-10T10:37:33.765Z,23.78
2023-06-10T10:38:37.002Z,24.02
2023-06-10T10:39:39.111Z,24.11
2023-06-10T10:40:42.329Z,24.32
2023-06-10T10:41:45.260Z,24.31
2023-06-10T10:42:50.393Z,24.23
2023-06-10T10:43:53.569Z,24.31
2023-06-10T10:44:56.565Z,24.34
2023-06-10T10:46:00.492Z,24.49
2023-06-10T10:47:05.428Z,24.35
2023-06-10T10:48:12.999Z,24.39
2023-06-10T10:49:16.530Z,24.31
2023-06-10T10:50:21.278Z,24.51
2023-06-10T10:51:26.594Z,24.51
2023-06-10T10:52:51.908Z,24.60
2023-06-10T10:54:16.274Z,24.49
2023-06-10T10:55:18.204Z,24.34
2023-06-10T10:56:20.225Z,24.39
2023-06-10T10:57:24.635Z,24.32
2023-06-10T10:58:27.275Z,24.26
2023-06-10T10:59:57.725Z,24.24
2023-06-10T11:00:59.982Z,24.42
2023-06-10T11:02:02.022Z,24.39
2023-06-10T11:03:07.405Z,24.15
2023-06-10T11:04:12.104Z,24.21
2023-06-10T11:05:18.162Z,24.33
2023-06-10T11:06:20.603Z,24.18
2023-06-10T11:07:22.996Z,24.34
2023-06-10T11:08:34.653Z,24.40
2023-06-10T11:09:36.629Z,24.47
2023-06-10T11:10:41.088Z,24.50
2023-06-10T11:11:51.564Z,24.74
2023-06-10T11:12:54.405Z,24.74
2023-06-10T11:14:26.974Z,24.64
2023-06-10T11:15:30.760Z,24.75
2023-06-10T11:16:43.381Z,24.66
2023-06-10T11:18:12.977Z,24.78
2023-06-10T11:19:35.530Z,24.83
2023-06-10T11:20:49.615Z,24.72
2023-06-10T11:22:04.864Z,24.50
2023-06-10T11:23:06.770Z,24.51
2023-06-10T11:24:15.188Z,24.60
2023-06-10T11:25:17.437Z,24.70
2023-06-10T11:26:32.351Z,24.59
2023-06-10T11:27:40.543Z,24.77
2023-06-10T11:28:48.937Z,24.96
2023-06-10T11:30:04.431Z,24.97
2023-06-10T11:31:07.200Z,25.00
2023-06-10T11:32:09.207Z,25.07
2023-06-10T11:33:18.592Z,25.03
2023-06-10T11:34:26.065Z,25.19
2023-06-10T11:35:28.464Z,25.15
2023-06-10T11:36:31.031Z,25.21
2023-06-10T11:37:32.993Z,25.03
2023-06-10T11:38:34.994Z,25.04
2023-06-10T11:39:36.888Z,24.92
2023-06-10T11:40:39.683Z,25.00
2023-06-10T11:41:42.088Z,25.05
2023-06-10T11:42:44.190Z,24.82
2023-06-10T11:43:46.669Z,24.67
2023-06-10T11:44:51.071Z,24.57
2023-06-10T11:45:56.624Z,24.48
2023-06-10T11:46:58.912Z,24.35
2023-06-10T11:48:01.504Z,24.21
2023-06-10T11:49:04.347Z,24.42
2023-06-10T11:50:06.721Z,24.56
2023-06-10T11:51:09.308Z,24.66
2023-06-10T11:52:12.047Z,24.81
2023-06-10T11:53:14.021Z,24.86
2023-06-10T11:54:17.178Z,24.89
2023-06-10T11:55:19.064Z,24.83
2023-06-10T11:56:25.256Z,24.87
2023-06-10T11:57:27.433Z,25.05
2023-06-10T11:58:29.424Z,25.02
2023-06-10T11:59:31.802Z,24.91
2023-06-10T12:00:33.817Z,24.87
2023-06-10T12:01:44.685Z,24.88
2023-06-10T12:02:47.061Z,24.79
2023-06-10T12:03:49.258Z,24.84
2023-06-10T12:04:51.284Z,24.91
2023-06-10T12:06:04.586Z,25.06
2023-06-10T12:07:06.753Z,25.11
2023-06-10T12:08:13.113Z,25.22
2023-06-10T12:09:29.782Z,25.34
2023-06-10T12:10:31.960Z,25.28
2023-06-10T12:11:34.974Z,25.39
2023-06-10T12:12:38.010Z,25.38
2023-06-10T12:13:49.564Z,25.39
2023-06-10T12:14:54.924Z,25.41
2023-06-10T12:16:08.121Z,25.30
2023-06-10T12:17:10.046Z,25.17
2023-06-10T12:18:38.258Z,25.06
2023-06-10T12:19:41.562Z,25.03
2023-06-10T12:20:43.748Z,25.05
2023-06-10T12:21:45.923Z,24.87
2023-06-10T12:22:47.804Z,24.68
2023-06-10T12:24:10.621Z,24.70
2023-06-10T12:25:13.493Z,24.55
2023-06-10T12:26:17.351Z,24.44
2023-06-10T12:27:19.781Z,24.50
2023-06-10T12:28:26.071Z,24.48
2023-06-10T12:29:30.930Z,24.07
2023-06-10T12:30:34.008Z,24.18
2023-06-10T12:32:04.286Z,24.23
2023-06-10T12:33:20.502Z,24.30
2023-06-10T12:34:30.227Z,24.31
2023-06-10T12:35:32.528Z,24.23
2023-06-10T12:36:35.370Z,24.26
2023-06-10T12:37:43.120Z,24.22
2023-06-10T12:38:46.314Z,24.21
2023-06-10T12:39:55.552Z,24.22
2023-06-10T12:41:06.721Z,24.19
2023-06-10T12:42:10.861Z,24.43
2023-06-10T12:43:13.087Z,24.56
2023-06-10T12:44:15.144Z,24.69
2023-06-10T12:45:37.077Z,24.71
2023-06-10T12:46:39.460Z,24.90
2023-06-10T12:47:42.437Z,25.06
2023-06-10T12:48:55.304Z,25.10
2023-06-10T12:49:57.462Z,25.17
2023-06-10T12:50:59.792Z,25.39
2023-06-10T12:52:02.312Z,25.57
2023-06-10T12:53:04.763Z,25.62
2023-06-10T12:54:06.777Z,25.64
2023-06-10T12:55:09.562Z,25.73
2023-06-10T12:56:11.746Z,26.01
2023-06-10T12:57:13.975Z,26.16
2023-06-10T12:58:15.888Z,26.32
2023-06-10T12:59:17.841Z,26.24
2023-06-10T13:00:20.592Z,26.21
2023-06-10T13:01:22.552Z,26.05
2023-06-10T13:02:25.481Z,25.94
2023-06-10T13:03:27.524Z,25.93
2023-06-10T13:04:29.458Z,25.85
2023-06-10T13:05:31.382Z,25.75
2023-06-10T13:06:37.168Z,25.66
2023-06-10T13:07:40.003Z,25.69
2023-06-10T13:08:41.881Z,25.57
2023-06-10T13:09:44.525Z,25.26
2023-06-10T13:10:46.404Z,24.96
2023-06-10T13:11:48.328Z,24.86
2023-06-10T13:12:50.772Z,24.53
2023-06-10T13:13:52.768Z,24.38
2023-06-10T13:14:54.835Z,24.17
2023-06-10T13:15:57.920Z,24.01
2023-06-10T13:16:59.839Z,24.00
2023-06-10T13:18:02.183Z,23.94
2023-06-10T13:19:06.296Z,23.88
2023-06-10T13:20:09.696Z,23.92
2023-06-10T13:21:11.573Z,23.82
2023-06-10T13:22:13.480Z,23.72
2023-06-10T13:23:16.391Z,23.68
2023-06-10T13:24:18.389Z,23.46
2023-06-10T13:25:20.413Z,23.33
2023-06-10T13:26:22.793Z,23.27
2023-06-10T13:27:24.698Z,23.39
2023-06-10T13:28:26.908Z,23.34
2023-06-10T13:29:28.814Z,23.24
2023-06-10T13:30:30.787Z,23.36
2023-06-10T13:31:33.614Z,23.37
2023-06-10T13:32:35.919Z,23.46
2023-06-10T13:33:38.736Z,23.38
2023-06-10T13:34:40.663Z,23.39
2023-06-10T13:35:42.754Z,23.39
2023-06-10T13:36:44.745Z,23.39
2023-06-10T13:37:46.785Z,23.51
2023-06-10T13:38:49.665Z,23.55
2023-06-10T13:39:52.410Z,23.58
2023-06-10T13:40:54.345Z,23.50